Strang, Nebraska
Current Conditions -  °F | °C
As of 2:35 AM on Monday 26 Jan 2015 (Local Time) from KHJH Reporting Station
Scattered Clouds Scattered Clouds  
Wind Chill: 28°   Ceiling: Unl
Heat Index: 33°   Visibility: 10mi
Dew Point: 29°   Wind: 6mph
Humidity: 82%   Direction: 220°SW
Pressure: 30.04"   Gusts: NA
Location:  40.42°N, 97.59°W
Report Text: KHJH 260835Z AUTO 22005KT 10SM SCT090 01/M02 A3004 RMK AO2 T00081019
Loading
Personal Weather Stations






























Interactive Weather Map New forecast layout! Learn more

10-Day Weather Forecast

Advertisements
Track Severe Weather on mobile